Private Wetterstation Nrnberg - Katzwang
Wetterdaten: April 2012
Datum Temp. A. Feuchte A. Luftdruck Regen Wind Richtung Taupunkt Windchill Windben
01.04.2012 4,3 C 55 % 1012 hPa 0,0 l/m 2,3 km/h W-NW -4,6 C 3,8 C 5,2 km/h
02.04.2012 7,8 C 62 % 1007 hPa 0,0 l/m 1,3 km/h N-NO 0,6 C 7,8 C 4,2 km/h
03.04.2012 10,7 C 66 % 1001 hPa 0,0 l/m 8,7 km/h N 3,9 C 8,6 C 11,6 km/h
04.04.2012 12,5 C 71 % 1006 hPa 0,0 l/m 4,9 km/h W-NW 7,0 C 11,5 C 7,8 km/h
05.04.2012 7,9 C 81 % 1010 hPa 2,1 l/m 12,7 km/h N-NO 4,8 C 3,9 C 14,7 km/h
06.04.2012 6,6 C 76 % 1007 hPa 0,0 l/m 0,5 km/h N 2,7 C 6,6 C 1,5 km/h
07.04.2012 4,4 C 79 % 1003 hPa 0,5 l/m 2,6 km/h W-NW 1,0 C 3,7 C 3,6 km/h
08.04.2012 0,9 C 59 % 1011 hPa 0,0 l/m 3,6 km/h N -6,4 C 0,4 C 4,6 km/h
09.04.2012 5,5 C 77 % 1005 hPa 0,0 l/m 7,3 km/h N-NW 1,6 C 3,8 C 8,4 km/h
10.04.2012 13,6 C 59 % 997 hPa 0,0 l/m 3,8 km/h N-NO 5,2 C 13,1 C 4,8 km/h
11.04.2012 8,3 C 79 % 999 hPa 2,6 l/m 0,0 km/h W-NW 4,8 C 8,3 C 1,0 km/h
12.04.2012 8,1 C 78 % 1001 hPa 2,1 l/m 2,4 km/h NO 4,3 C 8,0 C 3,4 km/h
13.04.2012 6,9 C 67 % 1002 hPa 0,0 l/m 1,4 km/h N-NO 1,0 C 6,9 C 2,4 km/h
14.04.2012 9,3 C 59 % 1000 hPa 0,0 l/m 8,9 km/h NO 1,3 C 7,0 C 9,9 km/h
15.04.2012 8,8 C 69 % 1003 hPa 0,0 l/m 4,4 km/h N-NO 3,4 C 7,4 C 7,0 km/h
16.04.2012 6,1 C 63 % 1013 hPa 0,0 l/m 2,5 km/h N-NO -0,4 C 5,8 C 3,5 km/h
17.04.2012 6,5 C 60 % 1007 hPa 0,0 l/m 6,8 km/h NO -1,2 C 5,3 C 7,8 km/h
18.04.2012 7,6 C 69 % 996 hPa 0,0 l/m 6,0 km/h O-NO 2,1 C 6,6 C 9,4 km/h
19.04.2012 10,8 C 58 % 992 hPa 0,0 l/m 5,7 km/h O-NO 2,3 C 9,8 C 6,7 km/h
20.04.2012 10,3 C 70 % 997 hPa 1,0 l/m 1,4 km/h W-NW 4,8 C 10,3 C 2,4 km/h
21.04.2012 9,1 C 73 % 1002 hPa 12,4 l/m 13,5 km/h W-NW 3,9 C 5,2 C 19,5 km/h
22.04.2012 7,6 C 77 % 1007 hPa 7,3 l/m 2,1 km/h W-NW 3,7 C 7,6 C 3,1 km/h
23.04.2012 8,1 C 72 % 1002 hPa 0,0 l/m 7,7 km/h NO 3,2 C 6,6 C 10,4 km/h
24.04.2012 9,0 C 77 % 998 hPa 2,6 l/m 2,9 km/h W-NW 5,1 C 8,2 C 3,9 km/h
25.04.2012 13,1 C 59 % 1003 hPa 0,0 l/m 9,7 km/h W-NW 4,8 C 11,2 C 10,7 km/h
26.04.2012 15,5 C 56 % 1008 hPa 0,0 l/m 0,0 km/h W-NW 6,3 C 15,5 C 1,0 km/h
27.04.2012 17,4 C 58 % 1014 hPa 0,0 l/m 1,4 km/h N-NO 8,5 C 17,4 C 2,3 km/h
28.04.2012 22,3 C 46 % 1010 hPa 0,0 l/m 9,2 km/h O 8,7 C 21,4 C 10,2 km/h
29.04.2012 19,2 C 56 % 1006 hPa 0,0 l/m 2,2 km/h O 9,8 C 19,0 C 3,2 km/h
30.04.2012 20,2 C 55 % 1011 hPa 0,0 l/m 8,2 km/h NO 10,3 C 19,2 C 9,2 km/h
Min-Datum 01.04.12 28.04.12 19.04.12 8 Tage 01.04.12 - 08.04.12 08.04.12 06.04.12
Min-Zeit 07:00 15:40 15:20 - 00:10 - 18:50 09:10 00:40
Minimum -3,2 C 25 % 991 hPa - 0,0 km/h - -7,5 C -9,7 C 1,0 km/h
Max-Datum 28.04.12 13.04.12 01.04.12 21.04.12 03.04.12 - 28.04.12 28.04.12 03.04.12
Max-Zeit 14:10 05:00 08:30 19:40 17:40 - 10:40 14:10 17:40
Maximum 31,8 C 86 % 1016 hPa 12,4 l/m 48,1 km/h
N
- 12,8 C 31,8 C 89,9 km/h
N
Durchschnitt 9,9 C 66 % 1004 hPa #30,6 l/m 4,8 km/h N-NO 3,4 C 9,0 C 6,4 km/h

Durchschnitt Minimum Temp.3,9 C
Durchschnitt Maximum Temp.16,0 C